Terminal Aerodrome Forecast
Issued by NWS Blacksburg, VA

Home | Current Version | Previous Version | Text Only | Print | Product List | Glossary On
Versions: 1 2 3 4 5 6 7 8 9 10 11 12 13 14 15 16 17 18 19 20 21 22 23 24 25 26
000
FTUS41 KRNK 011724
TAFROA
TAF
KROA 011724Z 0118/0218 24015G25KT 6SM -SHRA OVC060
      TEMPO 0118/0119 5SM SHRA BKN025
     FM012200 22012G22KT P6SM BKN050
     FM020400 27018G30KT P6SM OVC080
     FM020800 28025G40KT P6SM SCT100=

USA.gov is the U.S. government's official web portal to all federal, state and local government web resources and services.